sensor_id;sensor_type;location;lat;lon;timestamp;P1;durP1;ratioP1;P2;durP2;ratioP2
62123;SDS011;48110;47.532;19.078;2022-08-21T00:00:36;4.37;;;3.45;;
62123;SDS011;48110;47.532;19.078;2022-08-21T00:03:45;3.92;;;3.45;;
62123;SDS011;48110;47.532;19.078;2022-08-21T00:06:52;5.97;;;3.80;;
62123;SDS011;48110;47.532;19.078;2022-08-21T00:09:55;5.72;;;3.62;;
62123;SDS011;48110;47.532;19.078;2022-08-21T00:12:58;4.32;;;3.12;;
62123;SDS011;48110;47.532;19.078;2022-08-21T00:16:02;6.35;;;3.78;;
62123;SDS011;48110;47.532;19.078;2022-08-21T00:19:05;3.75;;;3.33;;
62123;SDS011;48110;47.532;19.078;2022-08-21T00:22:09;4.40;;;3.70;;
62123;SDS011;48110;47.532;19.078;2022-08-21T00:25:12;4.53;;;3.80;;
62123;SDS011;48110;47.532;19.078;2022-08-21T00:28:17;4.72;;;3.87;;
62123;SDS011;48110;47.532;19.078;2022-08-21T00:31:20;6.40;;;4.37;;
62123;SDS011;48110;47.532;19.078;2022-08-21T00:34:22;4.28;;;3.72;;
62123;SDS011;48110;47.532;19.078;2022-08-21T00:37:25;4.50;;;4.10;;
62123;SDS011;48110;47.532;19.078;2022-08-21T00:40:42;5.45;;;4.03;;
62123;SDS011;48110;47.532;19.078;2022-08-21T00:43:47;4.83;;;4.33;;
62123;SDS011;48110;47.532;19.078;2022-08-21T00:46:50;5.82;;;4.43;;
62123;SDS011;48110;47.532;19.078;2022-08-21T00:49:53;5.57;;;4.50;;
62123;SDS011;48110;47.532;19.078;2022-08-21T00:52:55;6.50;;;5.00;;
62123;SDS011;48110;47.532;19.078;2022-08-21T00:55:59;6.97;;;5.22;;
62123;SDS011;48110;47.532;19.078;2022-08-21T00:59:05;7.03;;;4.93;;
62123;SDS011;48110;47.532;19.078;2022-08-21T01:02:08;6.80;;;5.03;;
62123;SDS011;48110;47.532;19.078;2022-08-21T01:05:11;7.28;;;5.12;;
62123;SDS011;48110;47.532;19.078;2022-08-21T01:08:15;6.15;;;5.55;;
62123;SDS011;48110;47.532;19.078;2022-08-21T01:11:19;7.32;;;5.18;;
62123;SDS011;48110;47.532;19.078;2022-08-21T01:14:22;6.20;;;5.57;;
62123;SDS011;48110;47.532;19.078;2022-08-21T01:17:25;7.55;;;5.97;;
62123;SDS011;48110;47.532;19.078;2022-08-21T01:20:28;6.68;;;5.45;;
62123;SDS011;48110;47.532;19.078;2022-08-21T01:23:38;6.20;;;5.60;;
62123;SDS011;48110;47.532;19.078;2022-08-21T01:26:45;8.10;;;6.07;;
62123;SDS011;48110;47.532;19.078;2022-08-21T01:29:52;6.78;;;6.07;;
62123;SDS011;48110;47.532;19.078;2022-08-21T01:32:58;6.93;;;5.60;;
62123;SDS011;48110;47.532;19.078;2022-08-21T01:36:02;8.85;;;6.60;;
62123;SDS011;48110;47.532;19.078;2022-08-21T01:39:05;7.28;;;6.45;;
62123;SDS011;48110;47.532;19.078;2022-08-21T01:42:08;8.70;;;7.07;;
62123;SDS011;48110;47.532;19.078;2022-08-21T01:45:12;8.95;;;7.22;;
62123;SDS011;48110;47.532;19.078;2022-08-21T01:48:16;11.20;;;7.20;;
62123;SDS011;48110;47.532;19.078;2022-08-21T01:51:18;9.35;;;7.03;;
62123;SDS011;48110;47.532;19.078;2022-08-21T01:54:21;8.32;;;6.78;;
62123;SDS011;48110;47.532;19.078;2022-08-21T01:57:24;8.63;;;6.65;;
62123;SDS011;48110;47.532;19.078;2022-08-21T02:00:27;7.65;;;6.82;;
62123;SDS011;48110;47.532;19.078;2022-08-21T02:03:30;9.00;;;6.82;;
62123;SDS011;48110;47.532;19.078;2022-08-21T02:06:37;9.65;;;6.82;;
62123;SDS011;48110;47.532;19.078;2022-08-21T02:09:40;8.88;;;6.45;;
62123;SDS011;48110;47.532;19.078;2022-08-21T02:12:45;8.15;;;6.40;;
62123;SDS011;48110;47.532;19.078;2022-08-21T02:15:47;7.60;;;6.47;;
62123;SDS011;48110;47.532;19.078;2022-08-21T02:18:51;10.43;;;6.43;;
62123;SDS011;48110;47.532;19.078;2022-08-21T02:21:54;16.42;;;7.35;;
62123;SDS011;48110;47.532;19.078;2022-08-21T02:24:57;10.88;;;7.03;;
62123;SDS011;48110;47.532;19.078;2022-08-21T02:28:02;8.38;;;7.03;;
62123;SDS011;48110;47.532;19.078;2022-08-21T02:31:07;11.48;;;7.18;;
62123;SDS011;48110;47.532;19.078;2022-08-21T02:34:10;10.07;;;7.32;;
62123;SDS011;48110;47.532;19.078;2022-08-21T02:37:13;9.52;;;7.20;;
62123;SDS011;48110;47.532;19.078;2022-08-21T02:40:16;10.93;;;7.57;;
62123;SDS011;48110;47.532;19.078;2022-08-21T02:43:21;11.32;;;8.05;;
62123;SDS011;48110;47.532;19.078;2022-08-21T02:46:24;12.32;;;8.15;;
62123;SDS011;48110;47.532;19.078;2022-08-21T02:49:27;10.63;;;7.80;;
62123;SDS011;48110;47.532;19.078;2022-08-21T02:52:30;11.30;;;7.32;;
62123;SDS011;48110;47.532;19.078;2022-08-21T02:55:33;10.52;;;7.85;;
62123;SDS011;48110;47.532;19.078;2022-08-21T02:58:42;10.15;;;7.65;;
62123;SDS011;48110;47.532;19.078;2022-08-21T03:01:48;10.30;;;8.20;;
62123;SDS011;48110;47.532;19.078;2022-08-21T03:04:51;12.52;;;8.45;;
62123;SDS011;48110;47.532;19.078;2022-08-21T03:07:54;12.45;;;8.23;;
62123;SDS011;48110;47.532;19.078;2022-08-21T03:10:56;12.88;;;8.43;;
62123;SDS011;48110;47.532;19.078;2022-08-21T03:14:03;12.95;;;8.25;;
62123;SDS011;48110;47.532;19.078;2022-08-21T03:17:07;11.48;;;8.18;;
62123;SDS011;48110;47.532;19.078;2022-08-21T03:20:10;15.50;;;8.93;;
62123;SDS011;48110;47.532;19.078;2022-08-21T03:23:15;12.25;;;8.73;;
62123;SDS011;48110;47.532;19.078;2022-08-21T03:26:20;11.40;;;8.30;;
62123;SDS011;48110;47.532;19.078;2022-08-21T03:29:24;11.95;;;8.15;;
62123;SDS011;48110;47.532;19.078;2022-08-21T03:32:26;11.23;;;8.43;;
62123;SDS011;48110;47.532;19.078;2022-08-21T03:35:29;12.57;;;8.15;;
62123;SDS011;48110;47.532;19.078;2022-08-21T03:38:33;12.32;;;8.45;;
62123;SDS011;48110;47.532;19.078;2022-08-21T03:41:37;12.48;;;8.65;;
62123;SDS011;48110;47.532;19.078;2022-08-21T03:44:40;12.32;;;9.02;;
62123;SDS011;48110;47.532;19.078;2022-08-21T03:48:18;12.18;;;8.88;;
62123;SDS011;48110;47.532;19.078;2022-08-21T03:51:14;12.88;;;9.50;;
62123;SDS011;48110;47.532;19.078;2022-08-21T03:54:17;13.18;;;8.48;;
62123;SDS011;48110;47.532;19.078;2022-08-21T03:57:20;12.05;;;8.75;;
62123;SDS011;48110;47.532;19.078;2022-08-21T04:00:24;11.88;;;9.50;;
62123;SDS011;48110;47.532;19.078;2022-08-21T04:03:28;11.43;;;8.68;;
62123;SDS011;48110;47.532;19.078;2022-08-21T04:06:31;12.00;;;8.70;;
62123;SDS011;48110;47.532;19.078;2022-08-21T04:09:39;12.90;;;9.15;;
62123;SDS011;48110;47.532;19.078;2022-08-21T04:12:42;14.38;;;9.30;;
62123;SDS011;48110;47.532;19.078;2022-08-21T04:15:44;14.10;;;9.45;;
62123;SDS011;48110;47.532;19.078;2022-08-21T04:18:47;12.23;;;8.90;;
62123;SDS011;48110;47.532;19.078;2022-08-21T04:21:50;12.57;;;9.32;;
62123;SDS011;48110;47.532;19.078;2022-08-21T04:24:53;12.23;;;9.15;;
62123;SDS011;48110;47.532;19.078;2022-08-21T04:27:56;12.45;;;9.68;;
62123;SDS011;48110;47.532;19.078;2022-08-21T04:30:59;13.40;;;8.90;;
62123;SDS011;48110;47.532;19.078;2022-08-21T04:34:02;14.55;;;9.55;;
62123;SDS011;48110;47.532;19.078;2022-08-21T04:37:06;12.73;;;8.82;;
62123;SDS011;48110;47.532;19.078;2022-08-21T04:40:10;12.43;;;8.27;;
62123;SDS011;48110;47.532;19.078;2022-08-21T04:43:14;13.18;;;9.40;;
62123;SDS011;48110;47.532;19.078;2022-08-21T04:46:17;12.07;;;9.35;;
62123;SDS011;48110;47.532;19.078;2022-08-21T04:49:21;12.02;;;9.07;;
62123;SDS011;48110;47.532;19.078;2022-08-21T04:52:24;12.98;;;9.13;;
62123;SDS011;48110;47.532;19.078;2022-08-21T04:55:27;12.18;;;8.68;;
62123;SDS011;48110;47.532;19.078;2022-08-21T04:58:30;10.57;;;8.32;;
62123;SDS011;48110;47.532;19.078;2022-08-21T05:01:35;10.40;;;8.13;;
62123;SDS011;48110;47.532;19.078;2022-08-21T05:04:42;10.18;;;7.78;;
62123;SDS011;48110;47.532;19.078;2022-08-21T05:07:48;11.25;;;6.95;;
62123;SDS011;48110;47.532;19.078;2022-08-21T05:10:51;8.45;;;6.82;;
62123;SDS011;48110;47.532;19.078;2022-08-21T05:14:00;8.83;;;6.77;;
62123;SDS011;48110;47.532;19.078;2022-08-21T05:17:03;7.57;;;6.43;;
62123;SDS011;48110;47.532;19.078;2022-08-21T05:20:07;7.37;;;6.22;;
62123;SDS011;48110;47.532;19.078;2022-08-21T05:23:13;8.38;;;5.70;;
62123;SDS011;48110;47.532;19.078;2022-08-21T05:26:16;6.80;;;5.85;;
62123;SDS011;48110;47.532;19.078;2022-08-21T05:29:20;9.52;;;5.82;;
62123;SDS011;48110;47.532;19.078;2022-08-21T05:32:23;12.98;;;5.97;;
62123;SDS011;48110;47.532;19.078;2022-08-21T05:35:29;6.25;;;5.65;;
62123;SDS011;48110;47.532;19.078;2022-08-21T05:38:32;6.03;;;5.40;;
62123;SDS011;48110;47.532;19.078;2022-08-21T05:41:35;7.20;;;5.65;;
62123;SDS011;48110;47.532;19.078;2022-08-21T05:44:37;7.55;;;5.78;;
62123;SDS011;48110;47.532;19.078;2022-08-21T05:47:40;8.20;;;5.80;;
62123;SDS011;48110;47.532;19.078;2022-08-21T05:50:43;6.10;;;5.15;;
62123;SDS011;48110;47.532;19.078;2022-08-21T05:53:47;8.60;;;5.20;;
62123;SDS011;48110;47.532;19.078;2022-08-21T05:56:50;8.35;;;5.60;;
62123;SDS011;48110;47.532;19.078;2022-08-21T05:59:54;7.12;;;4.97;;
62123;SDS011;48110;47.532;19.078;2022-08-21T06:02:57;6.55;;;4.97;;
62123;SDS011;48110;47.532;19.078;2022-08-21T06:06:01;7.43;;;5.00;;
62123;SDS011;48110;47.532;19.078;2022-08-21T06:09:04;6.60;;;5.10;;
62123;SDS011;48110;47.532;19.078;2022-08-21T06:12:09;6.95;;;4.97;;
62123;SDS011;48110;47.532;19.078;2022-08-21T06:15:13;9.23;;;4.97;;
62123;SDS011;48110;47.532;19.078;2022-08-21T06:18:16;6.43;;;4.97;;
62123;SDS011;48110;47.532;19.078;2022-08-21T06:21:19;6.45;;;5.05;;
62123;SDS011;48110;47.532;19.078;2022-08-21T06:24:22;6.75;;;5.03;;
62123;SDS011;48110;47.532;19.078;2022-08-21T06:27:25;8.93;;;5.32;;
62123;SDS011;48110;47.532;19.078;2022-08-21T06:30:28;7.25;;;4.97;;
62123;SDS011;48110;47.532;19.078;2022-08-21T06:33:31;5.95;;;5.10;;
62123;SDS011;48110;47.532;19.078;2022-08-21T06:36:34;6.03;;;5.37;;
62123;SDS011;48110;47.532;19.078;2022-08-21T06:39:36;6.60;;;4.95;;
62123;SDS011;48110;47.532;19.078;2022-08-21T06:42:46;9.85;;;5.20;;
62123;SDS011;48110;47.532;19.078;2022-08-21T06:45:50;7.80;;;5.25;;
62123;SDS011;48110;47.532;19.078;2022-08-21T06:48:53;5.87;;;4.95;;
62123;SDS011;48110;47.532;19.078;2022-08-21T06:51:56;7.37;;;5.03;;
62123;SDS011;48110;47.532;19.078;2022-08-21T06:54:59;5.90;;;4.90;;
62123;SDS011;48110;47.532;19.078;2022-08-21T06:58:02;8.20;;;4.43;;
62123;SDS011;48110;47.532;19.078;2022-08-21T07:01:06;6.90;;;4.75;;
62123;SDS011;48110;47.532;19.078;2022-08-21T07:04:09;5.75;;;4.70;;
62123;SDS011;48110;47.532;19.078;2022-08-21T07:07:12;8.95;;;4.90;;
62123;SDS011;48110;47.532;19.078;2022-08-21T07:10:15;16.65;;;4.62;;
62123;SDS011;48110;47.532;19.078;2022-08-21T07:13:24;6.28;;;4.95;;
62123;SDS011;48110;47.532;19.078;2022-08-21T07:16:27;5.80;;;4.72;;
62123;SDS011;48110;47.532;19.078;2022-08-21T07:19:30;5.50;;;4.35;;
62123;SDS011;48110;47.532;19.078;2022-08-21T07:22:32;7.10;;;4.55;;
62123;SDS011;48110;47.532;19.078;2022-08-21T07:25:38;8.30;;;4.32;;
62123;SDS011;48110;47.532;19.078;2022-08-21T07:28:41;7.65;;;4.53;;
62123;SDS011;48110;47.532;19.078;2022-08-21T07:31:44;7.55;;;4.55;;
62123;SDS011;48110;47.532;19.078;2022-08-21T07:34:47;6.18;;;4.37;;
62123;SDS011;48110;47.532;19.078;2022-08-21T07:37:50;5.25;;;4.28;;
62123;SDS011;48110;47.532;19.078;2022-08-21T07:40:53;7.43;;;4.50;;
62123;SDS011;48110;47.532;19.078;2022-08-21T07:43:57;9.77;;;4.30;;
62123;SDS011;48110;47.532;19.078;2022-08-21T07:47:01;7.62;;;4.65;;
62123;SDS011;48110;47.532;19.078;2022-08-21T07:50:05;7.07;;;4.57;;
62123;SDS011;48110;47.532;19.078;2022-08-21T07:53:08;6.25;;;4.00;;
62123;SDS011;48110;47.532;19.078;2022-08-21T07:56:11;5.97;;;3.80;;
62123;SDS011;48110;47.532;19.078;2022-08-21T07:59:14;8.18;;;4.07;;
62123;SDS011;48110;47.532;19.078;2022-08-21T08:02:24;4.87;;;3.40;;
62123;SDS011;48110;47.532;19.078;2022-08-21T08:05:29;5.60;;;2.97;;
62123;SDS011;48110;47.532;19.078;2022-08-21T08:08:33;4.97;;;3.47;;
62123;SDS011;48110;47.532;19.078;2022-08-21T08:11:36;4.07;;;3.20;;
62123;SDS011;48110;47.532;19.078;2022-08-21T08:14:40;6.32;;;3.20;;
62123;SDS011;48110;47.532;19.078;2022-08-21T08:17:43;4.72;;;3.20;;
62123;SDS011;48110;47.532;19.078;2022-08-21T08:20:46;5.12;;;3.62;;
62123;SDS011;48110;47.532;19.078;2022-08-21T08:23:49;6.90;;;3.50;;
62123;SDS011;48110;47.532;19.078;2022-08-21T08:26:51;4.32;;;3.28;;
62123;SDS011;48110;47.532;19.078;2022-08-21T08:29:56;3.78;;;3.08;;
62123;SDS011;48110;47.532;19.078;2022-08-21T08:32:59;5.20;;;3.75;;
62123;SDS011;48110;47.532;19.078;2022-08-21T08:36:02;7.75;;;3.85;;
62123;SDS011;48110;47.532;19.078;2022-08-21T08:39:09;5.30;;;3.58;;
62123;SDS011;48110;47.532;19.078;2022-08-21T08:45:36;6.28;;;3.55;;
62123;SDS011;48110;47.532;19.078;2022-08-21T08:52:41;7.30;;;4.05;;
62123;SDS011;48110;47.532;19.078;2022-08-21T08:55:53;5.22;;;3.25;;
62123;SDS011;48110;47.532;19.078;2022-08-21T08:58:57;3.80;;;3.40;;
62123;SDS011;48110;47.532;19.078;2022-08-21T09:02:05;5.93;;;3.28;;
62123;SDS011;48110;47.532;19.078;2022-08-21T09:05:13;5.95;;;3.53;;
62123;SDS011;48110;47.532;19.078;2022-08-21T09:08:31;5.15;;;3.62;;
62123;SDS011;48110;47.532;19.078;2022-08-21T09:18:51;5.65;;;4.15;;
62123;SDS011;48110;47.532;19.078;2022-08-21T09:22:30;5.87;;;3.90;;
62123;SDS011;48110;47.532;19.078;2022-08-21T09:29:04;4.80;;;4.00;;
62123;SDS011;48110;47.532;19.078;2022-08-21T09:32:22;6.40;;;3.30;;
62123;SDS011;48110;47.532;19.078;2022-08-21T09:35:52;7.90;;;3.70;;
62123;SDS011;48110;47.532;19.078;2022-08-21T09:38:57;10.48;;;3.90;;
62123;SDS011;48110;47.532;19.078;2022-08-21T09:42:00;5.93;;;3.45;;
62123;SDS011;48110;47.532;19.078;2022-08-21T09:45:17;7.28;;;3.55;;
62123;SDS011;48110;47.532;19.078;2022-08-21T09:48:21;4.70;;;3.90;;
62123;SDS011;48110;47.532;19.078;2022-08-21T09:51:34;5.93;;;3.60;;
62123;SDS011;48110;47.532;19.078;2022-08-21T09:54:39;7.28;;;4.15;;
62123;SDS011;48110;47.532;19.078;2022-08-21T09:57:43;5.95;;;3.58;;
62123;SDS011;48110;47.532;19.078;2022-08-21T10:00:57;5.82;;;4.00;;
62123;SDS011;48110;47.532;19.078;2022-08-21T10:04:07;4.35;;;3.50;;
62123;SDS011;48110;47.532;19.078;2022-08-21T10:07:11;4.78;;;4.00;;
62123;SDS011;48110;47.532;19.078;2022-08-21T10:10:25;8.77;;;4.22;;
62123;SDS011;48110;47.532;19.078;2022-08-21T10:16:58;5.90;;;3.75;;
62123;SDS011;48110;47.532;19.078;2022-08-21T10:20:12;8.13;;;3.83;;
62123;SDS011;48110;47.532;19.078;2022-08-21T10:30:21;10.80;;;3.45;;
62123;SDS011;48110;47.532;19.078;2022-08-21T10:33:46;4.28;;;3.40;;
62123;SDS011;48110;47.532;19.078;2022-08-21T10:44:04;4.10;;;3.30;;
62123;SDS011;48110;47.532;19.078;2022-08-21T10:47:33;5.47;;;3.20;;
62123;SDS011;48110;47.532;19.078;2022-08-21T11:01:04;5.37;;;3.22;;
62123;SDS011;48110;47.532;19.078;2022-08-21T11:04:25;4.90;;;3.65;;
62123;SDS011;48110;47.532;19.078;2022-08-21T11:07:55;4.72;;;2.90;;
62123;SDS011;48110;47.532;19.078;2022-08-21T11:15:03;5.50;;;3.47;;
62123;SDS011;48110;47.532;19.078;2022-08-21T11:18:32;5.12;;;3.45;;
62123;SDS011;48110;47.532;19.078;2022-08-21T11:25:00;6.68;;;3.40;;
62123;SDS011;48110;47.532;19.078;2022-08-21T11:28:21;4.43;;;3.03;;
62123;SDS011;48110;47.532;19.078;2022-08-21T11:38:28;7.03;;;3.50;;
62123;SDS011;48110;47.532;19.078;2022-08-21T11:41:39;4.18;;;3.08;;
62123;SDS011;48110;47.532;19.078;2022-08-21T11:51:27;6.45;;;3.28;;
62123;SDS011;48110;47.532;19.078;2022-08-21T11:54:41;5.57;;;3.80;;
62123;SDS011;48110;47.532;19.078;2022-08-21T12:01:10;5.95;;;3.10;;
62123;SDS011;48110;47.532;19.078;2022-08-21T12:04:35;4.87;;;3.25;;
62123;SDS011;48110;47.532;19.078;2022-08-21T12:07:59;6.30;;;3.58;;
62123;SDS011;48110;47.532;19.078;2022-08-21T12:14:19;5.03;;;3.50;;
62123;SDS011;48110;47.532;19.078;2022-08-21T12:17:22;6.75;;;3.80;;
62123;SDS011;48110;47.532;19.078;2022-08-21T12:20:44;6.55;;;3.62;;
62123;SDS011;48110;47.532;19.078;2022-08-21T12:30:44;6.35;;;4.28;;
62123;SDS011;48110;47.532;19.078;2022-08-21T12:33:58;6.30;;;4.47;;
62123;SDS011;48110;47.532;19.078;2022-08-21T12:37:18;6.93;;;4.60;;
62123;SDS011;48110;47.532;19.078;2022-08-21T12:40:46;7.07;;;4.28;;
62123;SDS011;48110;47.532;19.078;2022-08-21T12:44:01;10.70;;;4.60;;
62123;SDS011;48110;47.532;19.078;2022-08-21T12:47:15;7.22;;;4.03;;
62123;SDS011;48110;47.532;19.078;2022-08-21T12:50:21;5.65;;;4.30;;
62123;SDS011;48110;47.532;19.078;2022-08-21T12:53:44;6.65;;;3.92;;
62123;SDS011;48110;47.532;19.078;2022-08-21T12:56:55;6.00;;;4.05;;
62123;SDS011;48110;47.532;19.078;2022-08-21T13:00:03;7.53;;;3.78;;
62123;SDS011;48110;47.532;19.078;2022-08-21T13:03:15;5.47;;;3.35;;
62123;SDS011;48110;47.532;19.078;2022-08-21T13:06:18;6.75;;;3.17;;
62123;SDS011;48110;47.532;19.078;2022-08-21T13:09:26;8.02;;;3.58;;
62123;SDS011;48110;47.532;19.078;2022-08-21T13:12:31;5.00;;;3.58;;
62123;SDS011;48110;47.532;19.078;2022-08-21T13:15:37;4.65;;;3.55;;
62123;SDS011;48110;47.532;19.078;2022-08-21T13:18:57;4.43;;;3.17;;
62123;SDS011;48110;47.532;19.078;2022-08-21T13:22:01;5.25;;;3.33;;
62123;SDS011;48110;47.532;19.078;2022-08-21T13:25:26;7.20;;;3.83;;
62123;SDS011;48110;47.532;19.078;2022-08-21T13:28:32;6.15;;;4.03;;
62123;SDS011;48110;47.532;19.078;2022-08-21T13:31:39;6.43;;;4.40;;
62123;SDS011;48110;47.532;19.078;2022-08-21T13:34:44;7.35;;;4.30;;
62123;SDS011;48110;47.532;19.078;2022-08-21T13:37:55;6.18;;;4.22;;
62123;SDS011;48110;47.532;19.078;2022-08-21T13:41:01;4.95;;;4.00;;
62123;SDS011;48110;47.532;19.078;2022-08-21T13:44:23;11.07;;;4.87;;
62123;SDS011;48110;47.532;19.078;2022-08-21T13:47:33;8.95;;;4.18;;
62123;SDS011;48110;47.532;19.078;2022-08-21T13:50:37;4.75;;;3.83;;
62123;SDS011;48110;47.532;19.078;2022-08-21T13:53:48;7.32;;;3.58;;
62123;SDS011;48110;47.532;19.078;2022-08-21T13:56:54;8.52;;;3.95;;
62123;SDS011;48110;47.532;19.078;2022-08-21T14:00:17;5.10;;;3.90;;
62123;SDS011;48110;47.532;19.078;2022-08-21T14:06:36;4.40;;;3.60;;
62123;SDS011;48110;47.532;19.078;2022-08-21T14:09:41;6.03;;;3.33;;
62123;SDS011;48110;47.532;19.078;2022-08-21T14:12:49;5.22;;;3.50;;
62123;SDS011;48110;47.532;19.078;2022-08-21T14:15:59;4.68;;;2.92;;
62123;SDS011;48110;47.532;19.078;2022-08-21T14:25:45;3.25;;;2.65;;
62123;SDS011;48110;47.532;19.078;2022-08-21T14:28:48;4.50;;;2.55;;
62123;SDS011;48110;47.532;19.078;2022-08-21T14:31:53;3.20;;;2.50;;
62123;SDS011;48110;47.532;19.078;2022-08-21T14:35:01;3.72;;;2.72;;
62123;SDS011;48110;47.532;19.078;2022-08-21T14:38:16;4.28;;;2.30;;
62123;SDS011;48110;47.532;19.078;2022-08-21T14:41:23;2.80;;;2.20;;
62123;SDS011;48110;47.532;19.078;2022-08-21T14:44:28;3.75;;;2.05;;
62123;SDS011;48110;47.532;19.078;2022-08-21T14:47:31;2.80;;;1.90;;
62123;SDS011;48110;47.532;19.078;2022-08-21T14:50:33;3.03;;;2.33;;
62123;SDS011;48110;47.532;19.078;2022-08-21T14:53:37;1.80;;;1.70;;
62123;SDS011;48110;47.532;19.078;2022-08-21T14:56:39;3.65;;;2.08;;
62123;SDS011;48110;47.532;19.078;2022-08-21T14:59:42;2.37;;;1.95;;
62123;SDS011;48110;47.532;19.078;2022-08-21T15:02:46;2.67;;;1.70;;
62123;SDS011;48110;47.532;19.078;2022-08-21T15:05:50;3.37;;;1.62;;
62123;SDS011;48110;47.532;19.078;2022-08-21T15:08:53;3.37;;;1.80;;
62123;SDS011;48110;47.532;19.078;2022-08-21T15:11:57;2.10;;;1.60;;
62123;SDS011;48110;47.532;19.078;2022-08-21T15:15:04;2.10;;;1.90;;
62123;SDS011;48110;47.532;19.078;2022-08-21T15:18:08;2.03;;;1.67;;
62123;SDS011;48110;47.532;19.078;2022-08-21T15:21:11;2.95;;;1.48;;
62123;SDS011;48110;47.532;19.078;2022-08-21T15:24:14;2.67;;;1.48;;
62123;SDS011;48110;47.532;19.078;2022-08-21T15:27:17;3.65;;;1.42;;
62123;SDS011;48110;47.532;19.078;2022-08-21T15:30:21;2.58;;;1.60;;
62123;SDS011;48110;47.532;19.078;2022-08-21T15:33:23;4.43;;;1.75;;
62123;SDS011;48110;47.532;19.078;2022-08-21T15:36:26;1.98;;;1.62;;
62123;SDS011;48110;47.532;19.078;2022-08-21T15:39:29;2.10;;;1.30;;
62123;SDS011;48110;47.532;19.078;2022-08-21T15:42:39;2.03;;;1.50;;
62123;SDS011;48110;47.532;19.078;2022-08-21T15:45:42;1.73;;;1.40;;
62123;SDS011;48110;47.532;19.078;2022-08-21T15:48:45;2.20;;;1.50;;
62123;SDS011;48110;47.532;19.078;2022-08-21T15:51:49;1.52;;;1.42;;
62123;SDS011;48110;47.532;19.078;2022-08-21T15:54:52;2.10;;;1.40;;
62123;SDS011;48110;47.532;19.078;2022-08-21T15:57:55;2.87;;;1.50;;
62123;SDS011;48110;47.532;19.078;2022-08-21T16:01:00;1.75;;;1.50;;
62123;SDS011;48110;47.532;19.078;2022-08-21T16:04:04;2.42;;;1.70;;
62123;SDS011;48110;47.532;19.078;2022-08-21T16:07:08;4.55;;;2.05;;
62123;SDS011;48110;47.532;19.078;2022-08-21T16:10:12;2.87;;;1.70;;
62123;SDS011;48110;47.532;19.078;2022-08-21T16:13:18;3.03;;;1.70;;
62123;SDS011;48110;47.532;19.078;2022-08-21T16:16:26;2.67;;;1.75;;
62123;SDS011;48110;47.532;19.078;2022-08-21T16:19:32;2.45;;;1.80;;
62123;SDS011;48110;47.532;19.078;2022-08-21T16:22:37;4.00;;;1.80;;
62123;SDS011;48110;47.532;19.078;2022-08-21T16:25:46;4.40;;;2.07;;
62123;SDS011;48110;47.532;19.078;2022-08-21T16:28:50;2.97;;;1.80;;
62123;SDS011;48110;47.532;19.078;2022-08-21T16:31:57;4.28;;;2.15;;
62123;SDS011;48110;47.532;19.078;2022-08-21T16:35:00;3.12;;;2.10;;
62123;SDS011;48110;47.532;19.078;2022-08-21T16:38:04;4.93;;;2.47;;
62123;SDS011;48110;47.532;19.078;2022-08-21T16:41:08;3.75;;;2.30;;
62123;SDS011;48110;47.532;19.078;2022-08-21T16:44:15;9.13;;;2.37;;
62123;SDS011;48110;47.532;19.078;2022-08-21T16:47:18;4.50;;;2.17;;
62123;SDS011;48110;47.532;19.078;2022-08-21T16:50:28;11.70;;;3.28;;
62123;SDS011;48110;47.532;19.078;2022-08-21T16:53:32;5.43;;;3.00;;
62123;SDS011;48110;47.532;19.078;2022-08-21T16:56:35;8.25;;;3.40;;
62123;SDS011;48110;47.532;19.078;2022-08-21T16:59:46;5.65;;;3.03;;
62123;SDS011;48110;47.532;19.078;2022-08-21T17:02:49;7.32;;;3.25;;
62123;SDS011;48110;47.532;19.078;2022-08-21T17:05:56;6.30;;;3.75;;
62123;SDS011;48110;47.532;19.078;2022-08-21T17:08:58;6.30;;;3.50;;
62123;SDS011;48110;47.532;19.078;2022-08-21T17:12:02;5.53;;;3.37;;
62123;SDS011;48110;47.532;19.078;2022-08-21T17:15:20;5.80;;;3.50;;
62123;SDS011;48110;47.532;19.078;2022-08-21T17:18:26;7.45;;;3.42;;
62123;SDS011;48110;47.532;19.078;2022-08-21T17:21:31;5.40;;;2.92;;
62123;SDS011;48110;47.532;19.078;2022-08-21T17:24:37;4.03;;;3.03;;
62123;SDS011;48110;47.532;19.078;2022-08-21T17:27:42;6.40;;;3.33;;
62123;SDS011;48110;47.532;19.078;2022-08-21T17:30:46;5.25;;;2.87;;
62123;SDS011;48110;47.532;19.078;2022-08-21T17:33:49;7.55;;;3.20;;
62123;SDS011;48110;47.532;19.078;2022-08-21T17:36:54;6.32;;;3.30;;
62123;SDS011;48110;47.532;19.078;2022-08-21T17:39:57;5.28;;;3.12;;
62123;SDS011;48110;47.532;19.078;2022-08-21T17:43:01;7.60;;;2.83;;
62123;SDS011;48110;47.532;19.078;2022-08-21T17:46:05;4.22;;;2.47;;
62123;SDS011;48110;47.532;19.078;2022-08-21T17:49:08;4.62;;;2.58;;
62123;SDS011;48110;47.532;19.078;2022-08-21T17:52:12;3.67;;;2.37;;
62123;SDS011;48110;47.532;19.078;2022-08-21T17:55:15;2.80;;;2.50;;
62123;SDS011;48110;47.532;19.078;2022-08-21T17:58:18;3.80;;;2.58;;
62123;SDS011;48110;47.532;19.078;2022-08-21T18:01:21;4.25;;;2.70;;
62123;SDS011;48110;47.532;19.078;2022-08-21T18:04:24;3.83;;;2.62;;
62123;SDS011;48110;47.532;19.078;2022-08-21T18:07:26;5.45;;;2.60;;
62123;SDS011;48110;47.532;19.078;2022-08-21T18:10:34;6.60;;;2.83;;
62123;SDS011;48110;47.532;19.078;2022-08-21T18:13:38;4.95;;;2.70;;
62123;SDS011;48110;47.532;19.078;2022-08-21T18:16:45;4.03;;;2.90;;
62123;SDS011;48110;47.532;19.078;2022-08-21T18:19:48;3.30;;;3.00;;
62123;SDS011;48110;47.532;19.078;2022-08-21T18:22:51;4.53;;;2.85;;
62123;SDS011;48110;47.532;19.078;2022-08-21T18:26:00;3.90;;;3.03;;
62123;SDS011;48110;47.532;19.078;2022-08-21T18:29:08;3.42;;;2.80;;
62123;SDS011;48110;47.532;19.078;2022-08-21T18:32:33;5.10;;;2.80;;
62123;SDS011;48110;47.532;19.078;2022-08-21T18:35:56;2.75;;;2.47;;
62123;SDS011;48110;47.532;19.078;2022-08-21T18:39:19;3.03;;;2.70;;
62123;SDS011;48110;47.532;19.078;2022-08-21T18:42:59;3.37;;;2.50;;
62123;SDS011;48110;47.532;19.078;2022-08-21T18:46:05;4.25;;;2.70;;
62123;SDS011;48110;47.532;19.078;2022-08-21T18:49:27;2.65;;;2.45;;
62123;SDS011;48110;47.532;19.078;2022-08-21T18:52:30;3.12;;;1.90;;
62123;SDS011;48110;47.532;19.078;2022-08-21T18:55:35;2.60;;;2.40;;
62123;SDS011;48110;47.532;19.078;2022-08-21T18:58:43;2.60;;;2.37;;
62123;SDS011;48110;47.532;19.078;2022-08-21T19:01:46;3.40;;;2.33;;
62123;SDS011;48110;47.532;19.078;2022-08-21T19:04:49;4.43;;;2.58;;
62123;SDS011;48110;47.532;19.078;2022-08-21T19:07:52;2.53;;;2.28;;
62123;SDS011;48110;47.532;19.078;2022-08-21T19:10:56;2.75;;;2.35;;
62123;SDS011;48110;47.532;19.078;2022-08-21T19:14:05;4.12;;;2.75;;
62123;SDS011;48110;47.532;19.078;2022-08-21T19:17:17;3.58;;;2.97;;
62123;SDS011;48110;47.532;19.078;2022-08-21T19:20:25;4.35;;;3.00;;
62123;SDS011;48110;47.532;19.078;2022-08-21T19:23:28;3.97;;;2.67;;
62123;SDS011;48110;47.532;19.078;2022-08-21T19:26:31;6.40;;;2.90;;
62123;SDS011;48110;47.532;19.078;2022-08-21T19:29:37;4.78;;;3.05;;
62123;SDS011;48110;47.532;19.078;2022-08-21T19:32:41;5.45;;;3.00;;
62123;SDS011;48110;47.532;19.078;2022-08-21T19:35:47;4.45;;;3.37;;
62123;SDS011;48110;47.532;19.078;2022-08-21T19:38:54;3.47;;;2.78;;
62123;SDS011;48110;47.532;19.078;2022-08-21T19:41:57;4.15;;;2.72;;
62123;SDS011;48110;47.532;19.078;2022-08-21T19:45:02;3.42;;;2.70;;
62123;SDS011;48110;47.532;19.078;2022-08-21T19:48:07;6.75;;;3.03;;
62123;SDS011;48110;47.532;19.078;2022-08-21T19:51:11;3.30;;;2.60;;
62123;SDS011;48110;47.532;19.078;2022-08-21T19:54:15;3.05;;;2.33;;